createdAt,value
2019-01-18T00:02:00.406Z,81.32
2019-01-18T00:04:28.315Z,81.69
2019-01-18T00:06:54.257Z,81.72
2019-01-18T00:09:20.920Z,82.21
2019-01-18T00:11:46.897Z,82.43
2019-01-18T00:14:13.777Z,82.48
2019-01-18T00:16:39.749Z,82.66
2019-01-18T00:19:05.745Z,82.56
2019-01-18T00:21:31.803Z,82.36
2019-01-18T00:23:57.727Z,81.82
2019-01-18T00:26:23.823Z,81.03
2019-01-18T00:28:49.724Z,80.62
2019-01-18T00:31:15.668Z,80.20
2019-01-18T00:33:42.053Z,80.16
2019-01-18T00:36:07.988Z,79.95
2019-01-18T00:38:33.983Z,80.14
2019-01-18T00:40:59.960Z,80.16
2019-01-18T00:43:26.230Z,80.31
2019-01-18T00:45:52.218Z,80.48
2019-01-18T00:48:18.231Z,80.45
2019-01-18T00:50:44.353Z,80.43
2019-01-18T00:53:10.287Z,80.62
2019-01-18T00:55:36.495Z,80.64
2019-01-18T00:58:02.837Z,80.67
2019-01-18T01:00:29.748Z,80.79
2019-01-18T01:02:56.218Z,80.93
2019-01-18T01:05:23.960Z,80.99
2019-01-18T01:07:51.904Z,80.96
2019-01-18T01:10:18.661Z,81.16
2019-01-18T01:12:45.009Z,81.20
2019-01-18T01:15:14.078Z,81.04
2019-01-18T01:17:40.163Z,81.07
2019-01-18T01:20:13.164Z,80.90
2019-01-18T01:22:39.396Z,80.80
2019-01-18T01:25:08.992Z,80.69
2019-01-18T01:27:35.302Z,80.54
2019-01-18T01:30:01.658Z,80.12
2019-01-18T01:32:28.135Z,80.28
2019-01-18T01:34:54.090Z,80.38
2019-01-18T01:37:20.049Z,80.29
2019-01-18T01:39:46.027Z,80.46
2019-01-18T01:42:11.970Z,80.50
2019-01-18T01:44:37.918Z,80.78
2019-01-18T01:47:03.904Z,80.76
2019-01-18T01:49:29.874Z,80.76
2019-01-18T01:51:55.928Z,80.94
2019-01-18T01:54:22.049Z,81.00
2019-01-18T01:56:47.996Z,80.90
2019-01-18T01:59:13.925Z,80.71
2019-01-18T02:01:39.968Z,80.93
2019-01-18T02:04:06.009Z,80.93
2019-01-18T02:06:32.132Z,80.89
2019-01-18T02:08:58.117Z,80.96
2019-01-18T02:11:24.066Z,80.96
2019-01-18T02:13:49.999Z,80.93
2019-01-18T02:16:16.513Z,80.96
2019-01-18T02:18:42.458Z,80.84
2019-01-18T02:21:08.441Z,81.13
2019-01-18T02:23:34.607Z,81.40
2019-01-18T02:26:00.555Z,81.58
2019-01-18T02:28:26.496Z,81.72
2019-01-18T02:30:52.474Z,81.56
2019-01-18T02:33:18.482Z,81.49
2019-01-18T02:35:44.451Z,81.52
2019-01-18T02:38:10.871Z,81.55
2019-01-18T02:40:36.819Z,81.39
2019-01-18T02:43:02.859Z,81.36
2019-01-18T02:45:29.141Z,81.48
2019-01-18T02:47:55.082Z,81.47
2019-01-18T02:50:21.106Z,81.58
2019-01-18T02:52:48.625Z,81.58
2019-01-18T02:55:15.460Z,81.63
2019-01-18T02:57:41.596Z,81.73
2019-01-18T03:00:16.620Z,81.63
2019-01-18T03:02:44.366Z,81.72
2019-01-18T03:05:12.626Z,81.88
2019-01-18T03:07:38.572Z,81.97
2019-01-18T03:10:09.231Z,82.21
2019-01-18T03:12:35.202Z,82.24
2019-01-18T03:15:01.346Z,82.13
2019-01-18T03:17:27.299Z,82.24
2019-01-18T03:19:53.300Z,82.21
2019-01-18T03:22:19.270Z,82.17
2019-01-18T03:24:45.204Z,82.26
2019-01-18T03:27:11.253Z,82.39
2019-01-18T03:29:37.201Z,82.21
2019-01-18T03:32:04.253Z,82.18
2019-01-18T03:34:30.237Z,82.14
2019-01-18T03:36:57.477Z,81.64
2019-01-18T03:39:23.475Z,81.62
2019-01-18T03:41:51.793Z,81.59
2019-01-18T03:44:19.342Z,81.24
2019-01-18T03:46:45.275Z,81.14
2019-01-18T03:49:11.255Z,80.98
2019-01-18T03:51:37.992Z,80.84
2019-01-18T03:54:03.920Z,80.73
2019-01-18T03:56:31.363Z,80.73
2019-01-18T03:58:57.299Z,80.75
2019-01-18T04:01:23.254Z,80.82
2019-01-18T04:03:50.827Z,80.82
2019-01-18T04:06:16.785Z,80.79
2019-01-18T04:08:44.034Z,80.81
2019-01-18T04:11:10.015Z,80.82
2019-01-18T04:13:35.965Z,80.82
2019-01-18T04:16:02.024Z,80.69
2019-01-18T04:18:28.007Z,80.47
2019-01-18T04:20:53.941Z,79.89
2019-01-18T04:23:19.994Z,79.48
2019-01-18T04:25:46.523Z,79.58
2019-01-18T04:28:14.375Z,79.49
2019-01-18T04:30:40.330Z,79.74
2019-01-18T04:33:06.329Z,79.35
2019-01-18T04:35:32.405Z,79.29
2019-01-18T04:38:00.252Z,79.29
2019-01-18T04:40:29.132Z,79.34
2019-01-18T04:42:55.758Z,79.01
2019-01-18T04:45:22.115Z,78.66
2019-01-18T04:47:48.220Z,78.39
2019-01-18T04:50:17.165Z,78.50
2019-01-18T04:52:44.802Z,78.45
2019-01-18T04:55:12.190Z,78.40
2019-01-18T04:57:40.040Z,78.24
2019-01-18T05:00:09.807Z,78.35
2019-01-18T05:02:37.399Z,78.39
2019-01-18T05:05:04.772Z,78.43
2019-01-18T05:07:30.711Z,78.46
2019-01-18T05:09:57.131Z,78.58
2019-01-18T05:12:23.067Z,78.58
2019-01-18T05:14:49.528Z,78.72
2019-01-18T05:17:17.425Z,78.72
2019-01-18T05:19:43.340Z,78.23
2019-01-18T05:22:09.290Z,77.90
2019-01-18T05:24:35.487Z,77.84
2019-01-18T05:27:01.427Z,77.67
2019-01-18T05:29:28.268Z,77.32
2019-01-18T05:31:54.387Z,77.15
2019-01-18T05:34:20.348Z,77.04
2019-01-18T05:36:46.279Z,76.55
2019-01-18T05:39:12.267Z,76.06
2019-01-18T05:41:38.299Z,76.06
2019-01-18T05:44:04.345Z,75.33
2019-01-18T05:46:30.391Z,75.51
2019-01-18T05:48:56.341Z,75.59
2019-01-18T05:51:22.987Z,75.80
2019-01-18T05:53:49.001Z,76.15
2019-01-18T05:56:14.945Z,76.39
2019-01-18T05:58:40.878Z,76.51
2019-01-18T06:01:07.840Z,76.79
2019-01-18T06:03:34.796Z,77.08
2019-01-18T06:06:01.029Z,77.44
2019-01-18T06:08:27.100Z,77.56
2019-01-18T06:10:53.040Z,77.69
2019-01-18T06:13:19.065Z,77.82
2019-01-18T06:15:45.007Z,78.05
2019-01-18T06:18:11.055Z,78.36
2019-01-18T06:20:37.095Z,78.65
2019-01-18T06:23:03.298Z,78.79
2019-01-18T06:25:29.248Z,78.94
2019-01-18T06:27:55.422Z,79.31
2019-01-18T06:30:22.024Z,79.31
2019-01-18T06:32:48.022Z,78.92
2019-01-18T06:35:14.352Z,78.95
2019-01-18T06:37:40.599Z,79.07
2019-01-18T06:40:10.047Z,79.32
2019-01-18T06:42:36.021Z,79.24
2019-01-18T06:45:05.077Z,79.30
2019-01-18T06:47:31.315Z,79.81
2019-01-18T06:49:57.296Z,79.05
2019-01-18T06:52:23.243Z,78.57
2019-01-18T06:54:49.498Z,78.50
2019-01-18T06:57:15.506Z,78.58
2019-01-18T06:59:41.658Z,78.81
2019-01-18T07:02:08.137Z,79.10
2019-01-18T07:04:40.471Z,79.00
2019-01-18T07:07:03.296Z,78.45
2019-01-18T07:09:29.244Z,78.21
2019-01-18T07:11:55.244Z,78.16
2019-01-18T07:14:21.585Z,78.13
2019-01-18T07:16:47.529Z,78.65
2019-01-18T07:19:15.014Z,78.00
2019-01-18T07:21:40.954Z,77.90
2019-01-18T07:24:06.898Z,77.88
2019-01-18T07:26:32.903Z,77.90
2019-01-18T07:28:58.855Z,77.80
2019-01-18T07:31:24.819Z,77.75
2019-01-18T07:33:50.838Z,77.88
2019-01-18T07:36:16.843Z,77.79
2019-01-18T07:38:42.928Z,77.98
2019-01-18T07:41:08.996Z,78.28
2019-01-18T07:43:34.952Z,78.45
2019-01-18T07:46:01.043Z,78.68
2019-01-18T07:48:27.316Z,78.91
2019-01-18T07:50:55.167Z,79.13
2019-01-18T07:53:21.250Z,79.20
2019-01-18T07:55:47.934Z,79.30
2019-01-18T07:58:13.883Z,79.43
2019-01-18T08:00:39.824Z,79.49
2019-01-18T08:03:05.915Z,79.66
2019-01-18T08:05:31.991Z,79.55
2019-01-18T08:07:58.429Z,79.54
2019-01-18T08:10:24.389Z,80.04
2019-01-18T08:12:51.373Z,79.78
2019-01-18T08:15:19.889Z,78.92
2019-01-18T08:17:45.852Z,78.80
2019-01-18T08:20:13.804Z,78.68
2019-01-18T08:22:40.233Z,78.91
2019-01-18T08:25:08.884Z,78.85
2019-01-18T08:27:35.949Z,78.82
2019-01-18T08:30:08.240Z,78.43
2019-01-18T08:32:34.214Z,78.35
2019-01-18T08:35:00.441Z,78.18
2019-01-18T08:37:26.432Z,78.36
2019-01-18T08:39:52.366Z,78.30
2019-01-18T08:42:18.316Z,78.19
2019-01-18T08:44:44.344Z,78.11
2019-01-18T08:47:10.857Z,77.94
2019-01-18T08:49:36.790Z,78.14
2019-01-18T08:52:02.862Z,77.94
2019-01-18T08:54:29.422Z,77.35
2019-01-18T08:56:55.359Z,77.23
2019-01-18T08:59:21.428Z,77.03
2019-01-18T09:01:47.382Z,76.96
2019-01-18T09:04:14.157Z,76.60
2019-01-18T09:06:40.548Z,76.83
2019-01-18T09:09:07.486Z,76.64
2019-01-18T09:11:33.471Z,76.74
2019-01-18T09:13:59.860Z,76.00
2019-01-18T09:16:25.984Z,75.53
2019-01-18T09:18:51.921Z,75.12
2019-01-18T09:21:17.907Z,75.17
2019-01-18T09:23:43.841Z,74.86
2019-01-18T09:26:10.188Z,74.54
2019-01-18T09:28:36.221Z,74.49
2019-01-18T09:31:02.200Z,74.56
2019-01-18T09:33:28.434Z,73.67
2019-01-18T09:35:55.709Z,73.96
2019-01-18T09:38:21.592Z,73.76
2019-01-18T09:40:47.637Z,73.79
2019-01-18T09:43:14.425Z,73.34
2019-01-18T09:45:40.777Z,73.62
2019-01-18T09:48:06.931Z,73.93
2019-01-18T09:50:32.961Z,74.20
2019-01-18T09:53:00.199Z,74.00
2019-01-18T09:55:26.145Z,74.34
2019-01-18T09:57:52.192Z,74.41
2019-01-18T10:00:23.251Z,74.23
2019-01-18T10:02:49.400Z,74.29
2019-01-18T10:05:16.399Z,74.23
2019-01-18T10:08:03.226Z,74.21
2019-01-18T10:10:29.464Z,74.10
2019-01-18T10:12:55.481Z,74.42
2019-01-18T10:15:39.810Z,74.45
2019-01-18T10:18:06.578Z,74.53
2019-01-18T10:20:32.523Z,74.70
2019-01-18T10:22:58.708Z,74.45
2019-01-18T10:25:24.649Z,74.92
2019-01-18T10:27:50.616Z,74.63
2019-01-18T10:30:24.407Z,74.55
2019-01-18T10:32:50.357Z,74.42
2019-01-18T10:35:16.630Z,74.57
2019-01-18T10:37:42.694Z,74.65
2019-01-18T10:40:11.366Z,74.58
2019-01-18T10:42:37.534Z,74.70
2019-01-18T10:45:06.833Z,74.72
2019-01-18T10:47:32.781Z,74.78
2019-01-18T10:49:58.725Z,75.48
2019-01-18T10:52:24.740Z,75.98
2019-01-18T10:54:50.746Z,75.99
2019-01-18T10:57:16.694Z,76.27
2019-01-18T10:59:42.936Z,76.57
2019-01-18T11:02:09.033Z,76.97
2019-01-18T11:04:34.986Z,77.07
2019-01-18T11:07:01.003Z,77.36
2019-01-18T11:09:26.956Z,77.48
2019-01-18T11:11:53.020Z,77.20
2019-01-18T11:14:19.035Z,77.08
2019-01-18T11:16:45.275Z,76.63
2019-01-18T11:19:13.700Z,76.14
2019-01-18T11:21:39.896Z,75.67
2019-01-18T11:24:06.057Z,74.88
2019-01-18T11:26:32.047Z,74.44
2019-01-18T11:28:58.015Z,74.35
2019-01-18T11:31:24.023Z,74.18
2019-01-18T11:33:50.068Z,73.79
2019-01-18T11:36:16.086Z,73.44
2019-01-18T11:38:42.028Z,73.17
2019-01-18T11:41:08.073Z,72.54
2019-01-18T11:43:34.068Z,72.58
2019-01-18T11:46:00.530Z,73.11
2019-01-18T11:48:26.494Z,73.09
2019-01-18T11:50:53.202Z,72.62
2019-01-18T11:53:19.464Z,72.37
2019-01-18T11:55:45.864Z,71.07
2019-01-18T11:58:11.879Z,71.02
2019-01-18T12:00:39.732Z,71.00
2019-01-18T12:03:06.399Z,71.39
2019-01-18T12:05:32.422Z,70.92
2019-01-18T12:07:59.901Z,71.14
2019-01-18T12:10:28.364Z,70.53
2019-01-18T12:12:54.770Z,70.15
2019-01-18T12:15:20.915Z,69.37
2019-01-18T12:17:47.256Z,69.21
2019-01-18T12:20:19.659Z,68.51
2019-01-18T12:22:45.713Z,67.88
2019-01-18T12:25:13.268Z,67.26
2019-01-18T12:27:39.543Z,67.36
2019-01-18T12:30:12.341Z,67.79
2019-01-18T12:32:40.188Z,67.90
2019-01-18T12:35:06.176Z,67.76
2019-01-18T12:37:32.570Z,66.89
2019-01-18T12:39:58.640Z,66.92
2019-01-18T12:42:24.852Z,66.68
2019-01-18T12:44:50.789Z,66.44
2019-01-18T12:47:16.955Z,64.28
2019-01-18T12:49:42.948Z,58.76
2019-01-18T12:52:10.630Z,57.52
2019-01-18T12:54:36.596Z,55.70
2019-01-18T12:57:04.307Z,52.51
2019-01-18T12:59:32.156Z,49.00
2019-01-18T13:01:58.234Z,50.87
2019-01-18T13:04:24.250Z,49.69
2019-01-18T13:06:50.412Z,48.03
2019-01-18T13:09:16.571Z,50.60
2019-01-18T13:11:43.070Z,51.60
2019-01-18T13:14:09.989Z,49.36
2019-01-18T13:16:36.029Z,46.63
2019-01-18T13:19:03.479Z,46.91
2019-01-18T13:21:29.438Z,47.98
2019-01-18T13:23:55.393Z,45.64
2019-01-18T13:26:21.548Z,46.89
2019-01-18T13:28:47.581Z,49.15
2019-01-18T13:31:13.829Z,48.85
2019-01-18T13:33:40.142Z,49.41
2019-01-18T13:36:08.293Z,49.96
2019-01-18T13:38:34.240Z,49.63
2019-01-18T13:41:00.224Z,47.38
2019-01-18T13:43:26.159Z,46.71
2019-01-18T13:45:53.626Z,49.55
2019-01-18T13:48:19.819Z,51.68
2019-01-18T13:50:45.941Z,53.79
2019-01-18T13:53:11.856Z,54.45
2019-01-18T13:55:37.851Z,54.14
2019-01-18T13:58:04.472Z,54.97
2019-01-18T14:00:30.515Z,57.04
2019-01-18T14:02:56.743Z,56.98
2019-01-18T14:05:23.065Z,56.75
2019-01-18T14:07:53.260Z,57.16
2019-01-18T14:10:23.756Z,57.77
2019-01-18T14:12:49.824Z,58.11
2019-01-18T14:15:21.583Z,58.44
2019-01-18T14:17:48.174Z,58.68
2019-01-18T14:20:20.869Z,59.10
2019-01-18T14:22:44.805Z,59.80
2019-01-18T14:25:10.893Z,59.96
2019-01-18T14:27:36.872Z,60.27
2019-01-18T14:30:08.301Z,60.30
2019-01-18T14:32:34.297Z,60.86
2019-01-18T14:35:00.251Z,61.77
2019-01-18T14:37:26.233Z,62.46
2019-01-18T14:39:52.307Z,63.10
2019-01-18T14:42:18.264Z,63.65
2019-01-18T14:44:44.314Z,64.27
2019-01-18T14:47:10.443Z,65.16
2019-01-18T14:49:36.893Z,65.72
2019-01-18T14:52:03.056Z,66.27
2019-01-18T14:54:29.383Z,67.39
2019-01-18T14:56:55.323Z,67.77
2019-01-18T14:59:21.275Z,67.90
2019-01-18T15:01:47.272Z,68.29
2019-01-18T15:04:13.308Z,68.79
2019-01-18T15:06:39.258Z,68.98
2019-01-18T15:09:07.835Z,69.52
2019-01-18T15:11:34.013Z,69.62
2019-01-18T15:14:00.655Z,69.75
2019-01-18T15:16:26.740Z,70.59
2019-01-18T15:18:52.824Z,70.66
2019-01-18T15:21:18.771Z,71.57
2019-01-18T15:23:44.970Z,71.12
2019-01-18T15:26:10.924Z,71.13
2019-01-18T15:28:36.903Z,71.12
2019-01-18T15:31:03.806Z,71.28
2019-01-18T15:33:30.052Z,71.49
2019-01-18T15:35:56.097Z,71.69
2019-01-18T15:38:22.184Z,71.62
2019-01-18T15:40:49.181Z,72.30
2019-01-18T15:43:15.936Z,72.60
2019-01-18T15:45:41.911Z,72.23
2019-01-18T15:48:07.862Z,72.61
2019-01-18T15:50:37.017Z,72.79
2019-01-18T15:53:03.781Z,72.79
2019-01-18T15:55:29.876Z,72.54
2019-01-18T15:57:55.820Z,72.91
2019-01-18T16:00:28.421Z,72.94
2019-01-18T16:02:54.870Z,72.92
2019-01-18T16:05:20.929Z,73.08
2019-01-18T16:07:46.929Z,72.84
2019-01-18T16:10:14.490Z,72.85
2019-01-18T16:12:41.377Z,72.79
2019-01-18T16:15:10.256Z,72.88
2019-01-18T16:17:36.655Z,72.98
2019-01-18T16:20:09.167Z,72.47
2019-01-18T16:22:35.267Z,72.54
2019-01-18T16:25:01.327Z,72.11
2019-01-18T16:27:27.286Z,72.12
2019-01-18T16:29:53.407Z,72.17
2019-01-18T16:32:19.761Z,72.16
2019-01-18T16:34:45.712Z,72.24
2019-01-18T16:37:11.813Z,72.67
2019-01-18T16:39:38.172Z,72.52
2019-01-18T16:42:04.328Z,72.52
2019-01-18T16:44:31.012Z,72.65
2019-01-18T16:46:57.047Z,72.83
2019-01-18T16:49:23.018Z,73.04
2019-01-18T16:51:49.122Z,73.00
2019-01-18T16:54:15.068Z,73.16
2019-01-18T16:56:41.465Z,73.04
2019-01-18T16:59:07.516Z,73.06
2019-01-18T17:01:33.515Z,73.27
2019-01-18T17:04:00.073Z,73.50
2019-01-18T17:06:26.108Z,73.68
2019-01-18T17:08:52.073Z,73.83
2019-01-18T17:11:18.048Z,73.98
2019-01-18T17:13:44.065Z,73.93
2019-01-18T17:16:10.042Z,73.83
2019-01-18T17:18:36.727Z,73.62
2019-01-18T17:21:03.349Z,73.34
2019-01-18T17:23:29.297Z,72.95
2019-01-18T17:25:55.325Z,72.69
2019-01-18T17:28:21.370Z,72.50
2019-01-18T17:30:47.430Z,72.33
2019-01-18T17:33:13.620Z,72.20
2019-01-18T17:35:43.216Z,72.90
2019-01-18T17:38:28.591Z,72.19
2019-01-18T17:41:01.012Z,72.77
2019-01-18T17:43:55.175Z,73.09
2019-01-18T17:46:39.968Z,72.98
2019-01-18T17:49:27.349Z,73.28
2019-01-18T17:52:15.403Z,73.04
2019-01-18T17:54:48.410Z,72.66
2019-01-18T17:57:27.455Z,72.32
2019-01-18T18:00:30.852Z,72.33
2019-01-18T18:03:01.247Z,72.28
2019-01-18T18:05:34.384Z,72.37
2019-01-18T18:08:05.308Z,72.01
2019-01-18T18:10:38.096Z,71.64
2019-01-18T18:13:29.946Z,71.62
2019-01-18T18:16:07.155Z,71.65
2019-01-18T18:19:06.794Z,71.87
2019-01-18T18:21:42.384Z,72.00
2019-01-18T18:24:12.189Z,72.26
2019-01-18T18:26:57.149Z,72.32
2019-01-18T18:29:43.891Z,72.72
2019-01-18T18:32:45.687Z,72.90
2019-01-18T18:35:31.800Z,72.91
2019-01-18T18:38:19.604Z,72.62
2019-01-18T18:41:01.046Z,72.77
2019-01-18T18:43:47.205Z,72.87
2019-01-18T18:46:28.917Z,72.79
2019-01-18T18:49:01.807Z,72.89
2019-01-18T18:51:48.387Z,73.15
2019-01-18T18:54:18.161Z,74.37
2019-01-18T18:56:47.934Z,73.42
2019-01-18T18:59:20.586Z,73.57
2019-01-18T19:02:11.837Z,73.61
2019-01-18T19:04:59.656Z,74.00
2019-01-18T19:07:57.732Z,74.25
2019-01-18T19:10:48.702Z,74.30
2019-01-18T19:13:38.942Z,74.71
2019-01-18T19:16:31.238Z,75.19
2019-01-18T19:19:13.054Z,75.75
2019-01-18T19:22:01.839Z,76.26
2019-01-18T19:24:46.744Z,76.50
2019-01-18T19:27:39.733Z,77.49
2019-01-18T19:30:21.333Z,77.44
2019-01-18T19:32:51.166Z,78.02
2019-01-18T19:35:39.326Z,79.21
2019-01-18T19:38:25.436Z,80.57
2019-01-18T19:41:07.189Z,80.77
2019-01-18T19:43:48.972Z,80.69
2019-01-18T19:46:48.825Z,81.01
2019-01-18T19:49:33.751Z,80.78
2019-01-18T19:52:06.533Z,80.72
2019-01-18T19:54:36.447Z,80.70
2019-01-18T19:57:08.935Z,80.60
2019-01-18T19:59:50.356Z,80.94
2019-01-18T20:02:25.930Z,80.85
2019-01-18T20:05:21.490Z,80.68
2019-01-18T20:07:57.090Z,80.30
2019-01-18T20:10:36.202Z,80.44
2019-01-18T20:13:08.740Z,80.17
2019-01-18T20:15:43.927Z,80.06
2019-01-18T20:18:39.846Z,79.99
2019-01-18T20:21:16.626Z,79.65
2019-01-18T20:23:51.941Z,79.67
2019-01-18T20:26:57.081Z,80.17
2019-01-18T20:29:35.767Z,80.69
2019-01-18T20:32:11.504Z,81.00
2019-01-18T20:35:09.722Z,81.14
2019-01-18T20:37:48.052Z,82.11
2019-01-18T20:40:21.259Z,81.70
2019-01-18T20:42:54.113Z,81.77
2019-01-18T20:45:32.675Z,81.49
2019-01-18T20:48:20.236Z,81.73
2019-01-18T20:50:55.555Z,81.97
2019-01-18T20:53:33.051Z,82.14
2019-01-18T20:56:15.113Z,82.57
2019-01-18T20:58:48.105Z,83.17
2019-01-18T21:01:17.901Z,83.04
2019-01-18T21:04:00.384Z,82.82
2019-01-18T21:06:48.792Z,83.08
2019-01-18T21:09:20.676Z,83.54
2019-01-18T21:12:05.767Z,83.77
2019-01-18T21:14:38.338Z,84.77
2019-01-18T21:17:08.319Z,84.62
2019-01-18T21:19:50.386Z,84.01
2019-01-18T21:22:25.742Z,83.71
2019-01-18T21:24:58.743Z,84.04
2019-01-18T21:27:44.883Z,84.13
2019-01-18T21:30:23.676Z,84.13
2019-01-18T21:32:56.845Z,83.81
2019-01-18T21:35:26.769Z,83.75
2019-01-18T21:38:22.777Z,83.70
2019-01-18T21:41:10.694Z,84.05
2019-01-18T21:43:55.804Z,84.22
2019-01-18T21:46:36.804Z,84.31
2019-01-18T21:49:06.768Z,84.46
2019-01-18T21:51:42.869Z,84.18
2019-01-18T21:54:30.134Z,84.20
2019-01-18T21:57:17.316Z,84.06
2019-01-18T21:59:50.143Z,83.39
2019-01-18T22:02:23.020Z,83.36
2019-01-18T22:05:11.158Z,83.46
2019-01-18T22:07:46.536Z,83.64
2019-01-18T22:10:39.894Z,83.88
2019-01-18T22:13:28.126Z,84.09
2019-01-18T22:16:11.259Z,84.11
2019-01-18T22:18:49.648Z,84.24
2019-01-18T22:21:36.256Z,84.15
2019-01-18T22:24:18.457Z,84.17
2019-01-18T22:27:09.009Z,84.04
2019-01-18T22:29:48.116Z,84.09
2019-01-18T22:32:39.262Z,84.17
2019-01-18T22:35:12.152Z,84.17
2019-01-18T22:37:48.274Z,84.38
2019-01-18T22:40:46.927Z,84.32
2019-01-18T22:43:35.195Z,84.17
2019-01-18T22:46:34.087Z,84.03
2019-01-18T22:49:21.650Z,84.03
2019-01-18T22:52:00.866Z,83.89
2019-01-18T22:54:48.495Z,84.30
2019-01-18T22:57:33.174Z,84.14
2019-01-18T23:00:44.435Z,84.26
2019-01-18T23:03:20.262Z,84.28
2019-01-18T23:05:53.704Z,84.21
2019-01-18T23:08:35.973Z,84.53
2019-01-18T23:11:08.898Z,84.26
2019-01-18T23:13:41.742Z,84.13
2019-01-18T23:16:42.385Z,84.21
2019-01-18T23:19:12.196Z,84.22
2019-01-18T23:22:11.287Z,84.68
2019-01-18T23:24:49.909Z,84.68
2019-01-18T23:27:36.464Z,84.55
2019-01-18T23:30:21.320Z,84.47
2019-01-18T23:33:02.210Z,84.62
2019-01-18T23:35:44.479Z,84.58
2019-01-18T23:38:34.232Z,84.63
2019-01-18T23:41:13.383Z,84.66
2019-01-18T23:43:52.362Z,85.27
2019-01-18T23:46:25.006Z,84.71
2019-01-18T23:49:07.013Z,84.43
2019-01-18T23:51:55.937Z,84.49
2019-01-18T23:54:47.144Z,84.44
2019-01-18T23:57:38.161Z,84.51
